Latest Weather Observations for Bathurst Airport

IDN60801

Issued at 9:32 pm EST Tuesday 21 April 2015 (issued every 30 minutes, with the page automatically refreshed every 10 minutes)

About weather observations | Map of weather stations | Latest weather observations for NSW | Other Formats
Station Details ID: 063291 Name: BATHURST AIRPORT AWS Lat: -33.41 Lon: 149.65 Height: 744.5 m
Data from the previous 72 hours. | See also: Recent months for locations in New South Wales
Date/Time
EST
Temp
°C
App
Temp
°C
Dew
Point
Rel
Hum
%
Delta-T
°C
Wind Press
QNH
hPa
Press
MSL
hPa
Rain
since 9 am
mm
Dir
 
Spd
km/h
Gust
km/h
Spd
kts
Gust
kts
21/09:30pm 8.6 5.3 8.2 97 0.2 SSW 15 19 8 10 1019.8 1018.4 6.2
21/09:00pm 8.2 4.9 8.1 99 0.0 SSW 15 17 8 9 1019.9 1018.5 6.2
21/08:30pm 8.3 5.4 8.2 99 0.0 SW 13 15 7 8 1020.1 1018.8 6.2
21/08:00pm 8.5 5.3 8.4 99 0.1 SSW 15 19 8 10 1020.5 1019.1 5.8
21/07:30pm 8.2 5.3 8.1 99 0.0 SSW 13 15 7 8 1020.7 1019.3 5.6
21/07:00pm 8.1 4.4 8.0 99 0.0 S 17 22 9 12 1020.8 1019.4 4.8
21/06:30pm 8.5 4.1 7.4 93 0.5 S 20 26 11 14 1020.9 1019.5 2.0
21/06:00pm 8.7 3.9 7.3 91 0.7 S 22 30 12 16 1020.6 1019.2 0.8
21/05:30pm 9.5 4.6 6.8 83 1.3 S 22 30 12 16 1020.5 1019.1 0.2
21/05:00pm 10.4 5.0 6.2 75 2.0 S 24 33 13 18 1020.0 1018.7 0.0
21/04:30pm 10.7 4.8 5.7 71 2.4 S 26 37 14 20 1019.8 1018.4 0.0
21/04:00pm 11.1 4.8 5.6 69 2.6 S 28 39 15 21 1019.7 1018.3 0.0
21/03:30pm 11.7 5.8 6.0 68 2.8 SSE 26 41 14 22 1019.8 1018.4 0.0
21/03:28pm 11.7 5.5 6.0 68 2.8 SSE 28 46 15 25 1019.7 1018.3 0.0
21/03:00pm 11.6 4.9 5.7 67 2.9 SSE 30 46 16 25 1019.5 1018.1 0.0
21/02:30pm 11.5 5.2 5.8 68 2.8 SSE 28 39 15 21 1019.5 1018.1 0.0
21/02:02pm 11.7 4.6 5.3 65 3.1 SSE 32 50 17 27 1019.3 1017.9 0.0
21/02:00pm 11.7 4.9 5.3 65 3.1 SSE 30 43 16 23 1019.4 1018.0 0.0
21/01:30pm 11.3 4.0 5.4 67 2.8 SSE 33 54 18 29 1019.6 1018.2 0.0
21/01:26pm 11.4 4.6 5.1 65 3.0 SSE 30 54 16 29 1019.7 1018.3 0.0
21/01:00pm 11.4 4.2 5.7 68 2.8 SSE 33 46 18 25 1019.6 1018.2 0.0
21/12:30pm 11.7 4.1 5.8 67 2.9 SSE 35 50 19 27 1019.8 1018.4 0.0
21/12:21pm 11.5 5.1 5.2 65 3.0 SSE 28 48 15 26 1020.0 1018.7 0.0
21/12:00pm 11.2 5.6 5.5 68 2.7 SSE 24 39 13 21 1020.2 1018.9 0.0
21/11:30am 11.7 5.8 5.8 67 2.9 SSE 26 41 14 22 1020.2 1018.9 0.0
21/11:02am 11.9 4.1 4.9 62 3.3 SSE 35 54 19 29 1020.6 1019.2 0.0
21/11:00am 12.0 4.7 5.4 64 3.2 SSE 33 50 18 27 1020.6 1019.2 0.0
21/10:35am 11.7 5.0 5.6 66 3.0 SSE 30 52 16 28 1020.5 1019.1 0.0
21/10:30am 11.5 5.2 5.6 67 2.9 SSE 28 41 15 22 1020.6 1019.2 0.0
21/10:01am 11.4 4.2 5.7 68 2.8 SSE 33 52 18 28 1020.4 1019.0 0.0
21/10:00am 11.4 3.7 5.3 66 2.9 SSE 35 52 19 28 1020.4 1019.0 0.0
21/09:30am 10.9 3.3 5.7 70 2.5 SSE 35 54 19 29 1020.7 1019.3 0.0
21/09:25am 10.6 3.4 5.2 69 2.6 SSE 32 54 17 29 1020.7 1019.3 0.0
21/09:00am 10.4 4.1 5.8 73 2.2 SSE 28 44 15 24 1021.3 1020.0 13.8
21/08:30am 9.4 4.5 6.7 83 1.3 S 22 33 12 18 1021.4 1020.1 13.8
21/08:00am 8.7 4.2 6.8 88 0.9 S 20 32 11 17 1021.2 1019.9 13.8
21/07:30am 8.7 3.6 6.2 84 1.2 SSE 22 33 12 18 1021.2 1019.9 13.6
21/07:00am 8.9 3.5 6.2 83 1.3 SSE 24 35 13 19 1021.3 1020.0 13.4
21/06:30am 8.8 3.9 6.9 88 0.9 SSE 22 33 12 18 1021.0 1019.6 13.4
21/06:00am 9.0 3.3 6.8 86 1.1 S 26 35 14 19 1020.8 1019.4 13.2
21/05:30am 9.6 4.3 6.7 82 1.4 SSE 24 33 13 18 1021.0 1019.6 13.2
21/05:00am 9.9 5.2 6.2 78 1.8 SSE 20 28 11 15 1020.9 1019.5 13.2
21/04:30am 9.9 5.2 6.1 77 1.8 S 20 30 11 16 1020.8 1019.4 13.2
21/04:00am 9.9 4.8 6.2 78 1.8 S 22 32 12 17 1020.7 1019.3 13.2
21/03:30am 9.9 3.6 5.9 76 1.9 SSE 28 43 15 23 1020.6 1019.2 13.2
21/03:00am 10.3 4.1 6.3 76 1.9 SSE 28 43 15 23 1020.9 1019.5 13.2
21/02:30am 10.7 5.4 7.0 78 1.8 SSE 24 33 13 18 1021.0 1019.6 13.2
21/02:00am 10.9 6.7 7.4 79 1.7 SSE 19 26 10 14 1021.3 1020.0 13.2
21/01:30am 11.0 6.8 7.5 79 1.8 SSE 19 26 10 14 1021.4 1020.1 13.2
21/01:00am 11.0 5.9 7.5 79 1.8 SSE 24 32 13 17 1021.2 1019.9 13.2
21/12:30am 11.1 6.7 7.6 79 1.8 SSE 20 32 11 17 1021.4 1020.1 13.2
21/12:00am 10.9 6.2 7.8 81 1.6 SSE 22 33 12 18 1021.5 1020.2 13.2
 
Date/Time
EST
Temp
°C
App
Temp
°C
Dew
Point
Rel
Hum
%
Delta-T
°C
Wind Press
QNH
hPa
Press
MSL
hPa
Rain
since 9 am
mm
Dir
 
Spd
km/h
Gust
km/h
Spd
kts
Gust
kts
20/11:30pm 11.0 5.1 7.7 80 1.7 SSE 28 43 15 23 1021.9 1020.5 13.2
20/11:00pm 10.9 5.8 7.8 81 1.6 SSE 24 39 13 21 1022.2 1020.8 13.2
20/10:30pm 10.5 5.8 7.7 83 1.4 SSE 22 35 12 19 1022.6 1021.3 13.2
20/10:00pm 10.0 6.4 8.4 90 0.8 SSE 17 22 9 12 1022.9 1021.6 13.2
20/09:30pm 9.4 6.0 9.1 98 0.2 S 17 20 9 11 1022.9 1021.6 13.0
20/09:00pm 8.9 6.2 8.9 100 0.0 SW 13 17 7 9 1023.4 1022.0 13.0
20/08:30pm 9.1 6.8 9.0 99 0.1 SSW 11 13 6 7 1023.7 1022.4 12.4
20/08:00pm 9.0 5.2 8.9 99 0.1 S 19 22 10 12 1023.7 1022.4 12.2
20/07:30pm 9.2 5.8 9.1 99 0.1 S 17 20 9 11 1023.7 1022.4 11.2
20/07:00pm 9.3 4.6 9.2 99 0.1 SSE 24 35 13 19 1023.5 1022.2 10.6
20/06:30pm 9.5 5.0 8.7 95 0.4 S 22 30 12 16 1023.4 1022.0 9.6
20/06:00pm 9.6 6.6 9.1 97 0.3 S 15 22 8 12 1023.5 1022.2 9.0
20/05:30pm 9.6 6.5 9.0 96 0.3 SSE 15 22 8 12 1023.7 1022.4 8.4
20/05:00pm 9.7 6.5 8.6 93 0.6 SSE 15 26 8 14 1023.4 1022.0 7.6
20/04:30pm 9.8 4.5 8.6 92 0.6 S 26 33 14 18 1022.2 1020.8 7.0
20/04:00pm 9.9 5.1 8.8 93 0.6 SSE 24 32 13 17 1022.5 1021.2 6.0
20/03:30pm 10.1 5.5 8.2 88 1.0 SSE 22 32 12 17 1022.5 1021.2 4.6
20/03:00pm 10.1 5.7 9.0 93 0.6 SSE 22 35 12 19 1022.6 1021.3 4.6
20/02:30pm 10.0 4.7 9.7 98 0.2 SSE 28 50 15 27 1022.0 1020.6 4.2
20/02:24pm 10.0 4.6 9.4 96 0.3 SSE 28 50 15 27 1022.1 1020.7 3.8
20/02:00pm 10.2 5.8 9.0 92 0.6 SSE 22 33 12 18 1022.7 1021.4 2.8
20/01:30pm 10.8 6.8 8.4 85 1.2 SE 19 30 10 16 1022.8 1021.5 2.4
20/01:00pm 11.2 5.0 7.7 79 1.8 SSE 30 43 16 23 1022.1 1020.7 2.4
20/12:30pm 11.0 6.2 8.8 86 1.1 SSE 24 39 13 21 1022.5 1021.2 2.4
20/12:00pm 10.4 7.0 9.0 91 0.7 SE 17 22 9 12 1023.7 1022.4 2.0
20/11:30am 10.4 6.9 8.7 89 0.9 S 17 24 9 13 1023.6 1022.3 1.4
20/11:00am 9.7 5.3 8.8 94 0.5 SSE 22 33 12 18 1023.8 1022.5 1.4
20/10:30am 9.5 5.7 8.9 96 0.3 SSE 19 28 10 15 1024.2 1022.9 1.2
20/10:00am 8.8 4.9 8.5 98 0.2 SSE 19 24 10 13 1024.4 1023.1 1.0
20/09:30am 8.4 3.6 7.5 94 0.4 S 22 26 12 14 1024.4 1023.1 0.4
20/09:00am 8.4 5.0 7.8 96 0.3 SSW 15 19 8 10 1025.2 1023.9 9.6
20/08:30am 8.1 4.7 7.7 97 0.2 S 15 20 8 11 1024.9 1023.6 9.2
20/08:00am 7.6 4.6 7.5 99 0.0 S 13 15 7 8 1024.7 1023.4 8.4
20/07:30am 7.2 4.0 6.9 98 0.1 S 13 17 7 9 1024.9 1023.6 7.2
20/07:00am 7.3 3.2 6.2 93 0.5 SSW 17 22 9 12 1024.5 1023.2 6.4
20/06:30am 7.7 3.5 5.8 88 0.9 S 17 24 9 13 1024.3 1023.0 5.6
20/06:00am 8.1 4.0 6.1 87 0.9 SSE 17 24 9 13 1024.3 1023.0 5.4
20/05:30am 8.0 3.9 6.3 89 0.8 S 17 24 9 13 1024.2 1022.9 5.4
20/05:00am 7.8 2.9 6.9 94 0.4 S 22 32 12 17 1023.8 1022.5 5.4
20/04:30am 7.7 4.3 7.6 99 0.0 S 15 19 8 10 1024.1 1022.8 5.2
20/04:00am 7.8 4.3 7.2 96 0.3 S 15 20 8 11 1024.1 1022.8 5.0
20/03:30am 8.1 4.9 6.9 92 0.6 SE 13 20 7 11 1024.2 1022.9 4.0
20/03:00am 8.6 5.0 6.9 89 0.8 SE 15 20 8 11 1024.1 1022.8 3.2
20/02:30am 9.1 5.0 6.2 82 1.4 SE 17 24 9 13 1024.1 1022.8 2.8
20/02:00am 8.9 4.8 6.3 84 1.2 S 17 22 9 12 1024.5 1023.2 2.8
20/01:30am 8.7 5.0 6.5 86 1.1 S 15 20 8 11 1024.5 1023.2 2.8
20/01:00am 8.7 4.6 6.3 85 1.1 S 17 20 9 11 1024.8 1023.5 2.8
20/12:30am 8.7 5.4 6.3 85 1.2 SSE 13 19 7 10 1024.9 1023.6 2.8
20/12:00am 8.5 4.5 6.5 87 1.0 S 17 26 9 14 1025.2 1023.9 2.8
 
Date/Time
EST
Temp
°C
App
Temp
°C
Dew
Point
Rel
Hum
%
Delta-T
°C
Wind Press
QNH
hPa
Press
MSL
hPa
Rain
since 9 am
mm
Dir
 
Spd
km/h
Gust
km/h
Spd
kts
Gust
kts
19/11:30pm 8.6 4.5 6.4 86 1.1 SSE 17 22 9 12 1025.4 1024.1 2.8
19/11:00pm 8.4 4.3 6.4 87 1.0 SSE 17 24 9 13 1025.6 1024.3 2.8
19/10:30pm 8.3 4.3 6.8 90 0.7 SSE 17 20 9 11 1025.7 1024.4 2.8
19/10:19pm 8.3 3.9 6.6 89 0.8 SSE 19 24 10 13 1025.7 1024.4 2.8
19/10:00pm 8.7 4.4 7.2 90 0.7 SSE 19 30 10 16 1025.6 1024.3 2.8
19/09:41pm 8.6 4.3 7.8 95 0.4 S 20 26 11 14 1025.4 1024.1 2.8
19/09:30pm 8.7 4.4 7.9 95 0.4 SSW 20 28 11 15 1025.3 1024.0 2.8
19/09:15pm 9.0 5.2 8.9 99 0.1 SSW 19 24 10 13 1025.2 1023.9 2.8
19/09:00pm 9.1 6.0 9.0 99 0.1 SSW 15 20 8 11 1025.1 1023.8 2.8
19/08:57pm 9.2 6.2 9.1 99 0.1 SSW 15 17 8 9 1025.1 1023.8 2.8
19/08:30pm 9.1 5.2 8.8 98 0.2 SSW 19 22 10 12 1025.2 1023.9 2.8
19/08:01pm 9.2 5.4 9.1 99 0.1 SW 19 28 10 15 1024.9 1023.6 2.8
19/08:00pm 9.3 5.5 9.2 99 0.1 SW 19 28 10 15 1024.9 1023.6 2.6
19/07:30pm 9.6 6.3 9.5 99 0.1 SW 17 20 9 11 1024.7 1023.4 2.2
19/07:00pm 9.7 6.0 9.6 99 0.1 SW 19 24 10 13 1024.2 1022.9 2.2
19/06:49pm 9.8 6.2 9.7 99 0.1 SW 19 22 10 12 1023.9 1022.6 2.2
19/06:30pm 9.9 6.3 9.9 100 0.0 SW 19 24 10 13 1023.6 1022.3 1.6
19/06:24pm 10.0 6.4 9.9 99 0.1 SW 19 24 10 13 1023.5 1022.2 1.2
19/06:01pm 10.5 7.1 10.5 100 0.0 SW 19 26 10 14 1023.1 1021.8 0.4
19/06:00pm 10.5 7.1 10.5 100 0.0 SW 19 24 10 13 1023.1 1021.8 0.4
19/05:30pm 10.8 7.3 10.8 100 0.0 SW 20 26 11 14 1022.9 1021.6 0.0
19/05:00pm 11.2 6.5 10.6 96 0.3 SW 26 32 14 17 1022.5 1021.2 0.0
19/04:30pm 12.9 9.2 10.1 83 1.5 WSW 20 30 11 16 1022.2 1020.8 0.0
19/04:00pm 14.5 12.7 8.0 65 3.4 WSW 7 9 4 5 1021.8 1020.4 0.0
19/03:30pm 14.5 12.4 8.2 66 3.3 SW 9 11 5 6 1021.6 1020.3 0.0
19/03:00pm 14.4 11.6 8.4 67 3.1 SW 13 15 7 8 1021.5 1020.2 0.0
19/02:30pm 14.3 11.1 8.3 67 3.1 SW 15 19 8 10 1021.3 1020.0 0.0
19/02:00pm 14.3 10.3 9.1 71 2.7 WSW 20 24 11 13 1021.3 1020.0 0.0
19/01:30pm 14.4 10.0 8.8 69 3.0 WSW 22 28 12 15 1021.1 1019.7 0.0
19/01:00pm 14.8 10.5 7.8 63 3.6 WSW 20 24 11 13 1021.2 1019.9 0.0
19/12:30pm 15.4 11.9 7.2 58 4.2 SW 15 20 8 11 1021.2 1019.9 0.0
19/12:00pm 16.2 12.6 8.2 59 4.2 SW 17 30 9 16 1021.5 1020.2 0.0
19/11:30am 15.1 11.1 6.7 57 4.3 WSW 17 22 9 12 1021.9 1020.5 0.0
19/11:00am 14.4 10.5 8.8 69 2.9 SW 19 26 10 14 1021.9 1020.5 0.0
19/10:30am 14.2 11.2 7.9 66 3.3 WSW 13 19 7 10 1021.9 1020.5 0.0
19/10:00am 13.5 10.9 7.9 69 2.9 SW 11 20 6 11 1021.6 1020.3 0.0
19/09:30am 13.2 10.4 8.7 74 2.3 SSW 13 20 7 11 1021.5 1020.2 0.0
19/09:05am 12.6 9.7 8.1 74 2.3 SSW 13 17 7 9 1021.5 1020.2 0.0
19/09:00am 12.3 9.8 8.4 77 2.0 SSW 11 15 6 8 1021.4 1020.1 14.4
19/08:30am 12.0 10.5 8.5 79 1.8 SSE 6 9 3 5 1021.1 1019.7 14.4
19/08:18am 11.7 10.2 8.6 81 1.6 SSW 6 9 3 5 1021.0 1019.6 14.4
19/08:00am 11.3 9.6 8.5 83 1.4 SSW 7 11 4 6 1020.9 1019.5 14.4
19/07:30am 10.4 8.8 8.7 89 0.9 S 7 9 4 5 1020.2 1018.9 14.4
19/07:00am 9.8 6.1 7.9 88 1.0 SW 17 20 9 11 1019.9 1018.5 14.4
19/06:30am 9.9 6.9 7.5 85 1.2 SW 13 17 7 9 1019.5 1018.1 14.4
19/06:00am 11.0 8.3 8.8 86 1.1 SW 13 15 7 8 1019.0 1017.6 14.4
19/05:30am 10.9 7.3 8.5 85 1.2 SW 17 20 9 11 1018.5 1017.1 14.4
19/05:01am 11.5 7.4 8.5 82 1.5 SW 20 26 11 14 1018.2 1016.8 14.4
19/05:00am 11.5 7.0 8.4 81 1.6 SW 22 26 12 14 1018.1 1016.7 14.4
19/04:30am 12.5 8.7 12.3 99 0.1 WSW 24 28 13 15 1017.8 1016.4 14.4
19/04:27am 12.7 9.0 12.7 100 0.0 WSW 24 28 13 15 1017.8 1016.4 14.4
19/04:05am 13.0 11.9 13.0 100 0.0 NW 11 13 6 7 1017.5 1016.0 14.2
19/04:00am 13.0 11.9 13.0 100 0.0 NW 11 13 6 7 1017.3 1015.9 14.2
19/03:58am 13.0 11.9 13.0 100 0.0 NW 11 13 6 7 1017.3 1015.9 14.2
19/03:30am 13.2 12.5 13.2 100 0.0 NNW 9 11 5 6 1017.1 1015.7 14.0
19/03:24am 13.3 12.6 13.3 100 0.0 N 9 11 5 6 1017.1 1015.7 14.0
19/03:00am 13.2 11.7 13.2 100 0.0 N 13 15 7 8 1017.1 1015.7 14.0
19/02:58am 13.2 11.7 13.2 100 0.0 N 13 15 7 8 1017.1 1015.7 14.0
19/02:31am 13.1 12.4 13.1 100 0.0 N 9 11 5 6 1017.3 1015.9 14.0
19/02:30am 13.1 12.4 13.1 100 0.0 N 9 11 5 6 1017.3 1015.9 14.0
19/02:00am 13.1 11.9 12.9 99 0.1 WNW 11 15 6 8 1017.9 1016.5 13.8
19/01:30am 13.2 11.7 13.2 100 0.0 NW 13 20 7 11 1017.8 1016.4 13.8
19/01:00am 12.8 11.2 12.8 100 0.0 NW 13 17 7 9 1018.0 1016.6 13.8
19/12:53am 12.6 11.3 12.6 100 0.0 NW 11 15 6 8 1017.8 1016.4 13.8
19/12:30am 13.0 12.8 13.0 100 0.0 WNW 6 9 3 5 1018.2 1016.8 13.8
19/12:00am 13.3 12.6 13.3 100 0.0 NW 9 13 5 7 1018.3 1016.9 13.8
 
Date/Time
EST
Temp
°C
App
Temp
°C
Dew
Point
Rel
Hum
%
Delta-T
°C
Wind Press
QNH
hPa
Press
MSL
hPa
Rain
since 9 am
mm
Dir
 
Spd
km/h
Gust
km/h
Spd
kts
Gust
kts
18/11:41pm 13.4 12.8 13.4 100 0.0 WNW 9 13 5 7 1018.5 1017.1 13.8
18/11:30pm 13.4 12.8 13.4 100 0.0 NW 9 13 5 7 1018.6 1017.2 13.8
18/11:18pm 13.5 13.3 13.5 100 0.0 WNW 7 9 4 5 1018.5 1017.1 13.8
18/11:00pm 13.8 12.5 13.8 100 0.0 W 13 15 7 8 1018.5 1017.1 13.6
18/10:57pm 13.8 12.9 13.8 100 0.0 W 11 15 6 8 1018.5 1017.1 13.4
18/10:30pm 13.9 11.9 13.9 100 0.0 WSW 17 20 9 11 1018.7 1017.3 13.4
18/10:11pm 13.9 12.7 13.9 100 0.0 NW 13 24 7 13 1018.6 1017.2 13.0
18/10:00pm 14.5 13.9 14.5 100 0.0 N 11 13 6 7 1018.4 1017.0 11.8
18/09:58pm 14.5 13.9 14.5 100 0.0 N 11 13 6 7 1018.4 1017.0 11.8

Other Formats:

Comma delimited format used in spreadsheet applications
http://www.bom.gov.au/fwo/IDN60801/IDN60801.94729.axf

JavaScript Object Notation format (JSON) in row-major order
http://www.bom.gov.au/fwo/IDN60801/IDN60801.94729.json